sensor_id;sensor_type;location;lat;lon;timestamp;P1;durP1;ratioP1;P2;durP2;ratioP2
77191;SDS011;66172;48.526;8.078;2023-01-23T00:00:52;19.88;;;9.98;;
77191;SDS011;66172;48.526;8.078;2023-01-23T00:03:19;18.73;;;9.37;;
77191;SDS011;66172;48.526;8.078;2023-01-23T00:05:44;19.05;;;9.52;;
77191;SDS011;66172;48.526;8.078;2023-01-23T00:08:10;20.20;;;10.00;;
77191;SDS011;66172;48.526;8.078;2023-01-23T00:10:37;21.77;;;10.77;;
77191;SDS011;66172;48.526;8.078;2023-01-23T00:13:03;21.30;;;10.73;;
77191;SDS011;66172;48.526;8.078;2023-01-23T00:15:29;21.02;;;10.45;;
77191;SDS011;66172;48.526;8.078;2023-01-23T00:17:57;19.63;;;10.38;;
77191;SDS011;66172;48.526;8.078;2023-01-23T00:20:23;22.55;;;10.85;;
77191;SDS011;66172;48.526;8.078;2023-01-23T00:22:49;20.77;;;10.38;;
77191;SDS011;66172;48.526;8.078;2023-01-23T00:25:15;19.43;;;8.70;;
77191;SDS011;66172;48.526;8.078;2023-01-23T00:27:41;20.67;;;9.52;;
77191;SDS011;66172;48.526;8.078;2023-01-23T00:30:07;20.75;;;9.88;;
77191;SDS011;66172;48.526;8.078;2023-01-23T00:32:33;21.73;;;10.60;;
77191;SDS011;66172;48.526;8.078;2023-01-23T00:34:59;22.13;;;10.67;;
77191;SDS011;66172;48.526;8.078;2023-01-23T00:37:25;22.65;;;11.07;;
77191;SDS011;66172;48.526;8.078;2023-01-23T00:39:51;21.00;;;10.70;;
77191;SDS011;66172;48.526;8.078;2023-01-23T00:42:17;23.77;;;11.33;;
77191;SDS011;66172;48.526;8.078;2023-01-23T00:44:43;19.83;;;9.93;;
77191;SDS011;66172;48.526;8.078;2023-01-23T00:47:09;20.15;;;10.57;;
77191;SDS011;66172;48.526;8.078;2023-01-23T00:49:35;20.20;;;10.53;;
77191;SDS011;66172;48.526;8.078;2023-01-23T00:52:00;21.80;;;10.23;;
77191;SDS011;66172;48.526;8.078;2023-01-23T00:54:26;19.33;;;10.57;;
77191;SDS011;66172;48.526;8.078;2023-01-23T00:56:52;21.13;;;10.55;;
77191;SDS011;66172;48.526;8.078;2023-01-23T00:59:18;22.80;;;10.47;;
77191;SDS011;66172;48.526;8.078;2023-01-23T01:01:44;19.77;;;9.75;;
77191;SDS011;66172;48.526;8.078;2023-01-23T01:04:10;21.17;;;10.15;;
77191;SDS011;66172;48.526;8.078;2023-01-23T01:06:36;20.55;;;10.00;;
77191;SDS011;66172;48.526;8.078;2023-01-23T01:09:02;18.90;;;9.33;;
77191;SDS011;66172;48.526;8.078;2023-01-23T01:11:29;23.05;;;10.18;;
77191;SDS011;66172;48.526;8.078;2023-01-23T01:13:55;19.00;;;9.32;;
77191;SDS011;66172;48.526;8.078;2023-01-23T01:16:21;18.65;;;9.52;;
77191;SDS011;66172;48.526;8.078;2023-01-23T01:18:48;18.83;;;8.83;;
77191;SDS011;66172;48.526;8.078;2023-01-23T01:21:15;19.08;;;9.07;;
77191;SDS011;66172;48.526;8.078;2023-01-23T01:23:41;18.40;;;8.30;;
77191;SDS011;66172;48.526;8.078;2023-01-23T01:26:07;16.85;;;7.65;;
77191;SDS011;66172;48.526;8.078;2023-01-23T01:28:34;17.85;;;8.18;;
77191;SDS011;66172;48.526;8.078;2023-01-23T01:31:07;17.87;;;8.30;;
77191;SDS011;66172;48.526;8.078;2023-01-23T01:33:38;17.20;;;8.32;;
77191;SDS011;66172;48.526;8.078;2023-01-23T01:36:11;19.63;;;8.32;;
77191;SDS011;66172;48.526;8.078;2023-01-23T01:38:39;18.42;;;8.02;;
77191;SDS011;66172;48.526;8.078;2023-01-23T01:41:05;16.38;;;8.00;;
77191;SDS011;66172;48.526;8.078;2023-01-23T01:43:32;18.50;;;8.00;;
77191;SDS011;66172;48.526;8.078;2023-01-23T01:51:26;17.17;;;8.43;;
77191;SDS011;66172;48.526;8.078;2023-01-23T01:53:55;16.92;;;7.60;;
77191;SDS011;66172;48.526;8.078;2023-01-23T01:56:25;18.97;;;8.20;;
77191;SDS011;66172;48.526;8.078;2023-01-23T01:58:54;16.80;;;7.97;;
77191;SDS011;66172;48.526;8.078;2023-01-23T02:01:22;16.88;;;7.65;;
77191;SDS011;66172;48.526;8.078;2023-01-23T02:03:48;18.15;;;8.13;;
77191;SDS011;66172;48.526;8.078;2023-01-23T02:06:16;16.30;;;7.85;;
77191;SDS011;66172;48.526;8.078;2023-01-23T02:08:45;17.90;;;8.20;;
77191;SDS011;66172;48.526;8.078;2023-01-23T02:11:17;16.30;;;7.85;;
77191;SDS011;66172;48.526;8.078;2023-01-23T02:13:43;16.77;;;8.32;;
77191;SDS011;66172;48.526;8.078;2023-01-23T02:16:12;19.10;;;8.50;;
77191;SDS011;66172;48.526;8.078;2023-01-23T02:18:43;17.65;;;7.68;;
77191;SDS011;66172;48.526;8.078;2023-01-23T02:21:13;18.33;;;8.07;;
77191;SDS011;66172;48.526;8.078;2023-01-23T02:26:19;17.48;;;8.00;;
77191;SDS011;66172;48.526;8.078;2023-01-23T02:28:50;16.60;;;7.63;;
77191;SDS011;66172;48.526;8.078;2023-01-23T02:31:17;19.95;;;8.68;;
77191;SDS011;66172;48.526;8.078;2023-01-23T02:33:45;18.07;;;8.33;;
77191;SDS011;66172;48.526;8.078;2023-01-23T02:36:19;18.05;;;8.30;;
77191;SDS011;66172;48.526;8.078;2023-01-23T02:38:53;18.10;;;7.90;;
77191;SDS011;66172;48.526;8.078;2023-01-23T02:41:26;17.13;;;8.13;;
77191;SDS011;66172;48.526;8.078;2023-01-23T02:43:55;18.23;;;8.02;;
77191;SDS011;66172;48.526;8.078;2023-01-23T02:46:24;17.20;;;8.10;;
77191;SDS011;66172;48.526;8.078;2023-01-23T02:48:50;18.92;;;8.38;;
77191;SDS011;66172;48.526;8.078;2023-01-23T02:51:16;17.15;;;7.93;;
77191;SDS011;66172;48.526;8.078;2023-01-23T02:53:42;16.63;;;7.97;;
77191;SDS011;66172;48.526;8.078;2023-01-23T02:56:08;15.53;;;7.47;;
77191;SDS011;66172;48.526;8.078;2023-01-23T02:58:34;15.68;;;7.47;;
77191;SDS011;66172;48.526;8.078;2023-01-23T03:01:19;15.60;;;7.40;;
77191;SDS011;66172;48.526;8.078;2023-01-23T03:03:45;16.58;;;7.82;;
77191;SDS011;66172;48.526;8.078;2023-01-23T03:06:10;15.68;;;7.40;;
77191;SDS011;66172;48.526;8.078;2023-01-23T03:08:37;16.33;;;7.83;;
77191;SDS011;66172;48.526;8.078;2023-01-23T03:11:13;15.27;;;7.43;;
77191;SDS011;66172;48.526;8.078;2023-01-23T03:13:40;17.50;;;7.72;;
77191;SDS011;66172;48.526;8.078;2023-01-23T03:16:06;15.55;;;7.40;;
77191;SDS011;66172;48.526;8.078;2023-01-23T03:18:32;16.50;;;7.60;;
77191;SDS011;66172;48.526;8.078;2023-01-23T03:21:01;16.25;;;7.53;;
77191;SDS011;66172;48.526;8.078;2023-01-23T03:23:28;16.45;;;7.97;;
77191;SDS011;66172;48.526;8.078;2023-01-23T03:25:54;16.67;;;7.47;;
77191;SDS011;66172;48.526;8.078;2023-01-23T03:28:23;16.08;;;6.97;;
77191;SDS011;66172;48.526;8.078;2023-01-23T03:31:09;15.50;;;7.10;;
77191;SDS011;66172;48.526;8.078;2023-01-23T03:33:35;15.77;;;7.10;;
77191;SDS011;66172;48.526;8.078;2023-01-23T03:36:04;16.77;;;8.43;;
77191;SDS011;66172;48.526;8.078;2023-01-23T03:38:30;14.07;;;6.50;;
77191;SDS011;66172;48.526;8.078;2023-01-23T03:40:56;16.53;;;6.60;;
77191;SDS011;66172;48.526;8.078;2023-01-23T03:43:40;13.52;;;6.20;;
77191;SDS011;66172;48.526;8.078;2023-01-23T03:46:06;15.48;;;6.78;;
77191;SDS011;66172;48.526;8.078;2023-01-23T03:48:32;13.63;;;6.80;;
77191;SDS011;66172;48.526;8.078;2023-01-23T03:50:58;14.37;;;6.37;;
77191;SDS011;66172;48.526;8.078;2023-01-23T03:53:24;15.88;;;6.95;;
77191;SDS011;66172;48.526;8.078;2023-01-23T03:55:50;14.20;;;6.72;;
77191;SDS011;66172;48.526;8.078;2023-01-23T03:58:16;13.80;;;6.37;;
77191;SDS011;66172;48.526;8.078;2023-01-23T04:00:42;14.10;;;6.68;;
77191;SDS011;66172;48.526;8.078;2023-01-23T04:03:07;13.00;;;6.07;;
77191;SDS011;66172;48.526;8.078;2023-01-23T04:05:33;15.33;;;6.60;;
77191;SDS011;66172;48.526;8.078;2023-01-23T04:07:59;14.83;;;7.17;;
77191;SDS011;66172;48.526;8.078;2023-01-23T04:10:26;13.00;;;5.93;;
77191;SDS011;66172;48.526;8.078;2023-01-23T04:12:52;13.52;;;5.78;;
77191;SDS011;66172;48.526;8.078;2023-01-23T04:15:17;14.38;;;6.78;;
77191;SDS011;66172;48.526;8.078;2023-01-23T04:17:43;14.27;;;5.83;;
77191;SDS011;66172;48.526;8.078;2023-01-23T04:20:10;13.93;;;6.22;;
77191;SDS011;66172;48.526;8.078;2023-01-23T04:22:37;14.02;;;6.68;;
77191;SDS011;66172;48.526;8.078;2023-01-23T04:25:03;13.25;;;6.28;;
77191;SDS011;66172;48.526;8.078;2023-01-23T04:27:30;12.90;;;5.75;;
77191;SDS011;66172;48.526;8.078;2023-01-23T04:29:56;14.07;;;6.37;;
77191;SDS011;66172;48.526;8.078;2023-01-23T04:32:23;15.18;;;6.55;;
77191;SDS011;66172;48.526;8.078;2023-01-23T04:34:49;15.73;;;6.82;;
77191;SDS011;66172;48.526;8.078;2023-01-23T04:37:16;14.25;;;6.50;;
77191;SDS011;66172;48.526;8.078;2023-01-23T04:39:42;15.07;;;6.63;;
77191;SDS011;66172;48.526;8.078;2023-01-23T04:42:08;13.90;;;6.32;;
77191;SDS011;66172;48.526;8.078;2023-01-23T04:44:34;21.98;;;8.93;;
77191;SDS011;66172;48.526;8.078;2023-01-23T04:47:00;29.45;;;10.48;;
77191;SDS011;66172;48.526;8.078;2023-01-23T04:49:26;18.13;;;7.43;;
77191;SDS011;66172;48.526;8.078;2023-01-23T04:51:52;18.33;;;7.80;;
77191;SDS011;66172;48.526;8.078;2023-01-23T04:54:19;16.58;;;7.28;;
77191;SDS011;66172;48.526;8.078;2023-01-23T04:56:45;15.30;;;7.50;;
77191;SDS011;66172;48.526;8.078;2023-01-23T04:59:12;16.45;;;7.40;;
77191;SDS011;66172;48.526;8.078;2023-01-23T05:01:40;16.93;;;7.90;;
77191;SDS011;66172;48.526;8.078;2023-01-23T05:04:06;15.60;;;7.40;;
77191;SDS011;66172;48.526;8.078;2023-01-23T05:06:32;15.02;;;7.03;;
77191;SDS011;66172;48.526;8.078;2023-01-23T05:08:58;15.13;;;7.15;;
77191;SDS011;66172;48.526;8.078;2023-01-23T05:11:24;16.20;;;7.30;;
77191;SDS011;66172;48.526;8.078;2023-01-23T05:13:50;16.10;;;7.00;;
77191;SDS011;66172;48.526;8.078;2023-01-23T05:16:15;14.38;;;6.47;;
77191;SDS011;66172;48.526;8.078;2023-01-23T05:18:41;12.07;;;5.67;;
77191;SDS011;66172;48.526;8.078;2023-01-23T05:21:07;14.00;;;6.57;;
77191;SDS011;66172;48.526;8.078;2023-01-23T05:23:33;14.88;;;6.35;;
77191;SDS011;66172;48.526;8.078;2023-01-23T05:25:59;14.23;;;6.30;;
77191;SDS011;66172;48.526;8.078;2023-01-23T05:28:25;15.68;;;6.53;;
77191;SDS011;66172;48.526;8.078;2023-01-23T05:30:51;18.08;;;8.15;;
77191;SDS011;66172;48.526;8.078;2023-01-23T05:33:17;20.33;;;8.57;;
77191;SDS011;66172;48.526;8.078;2023-01-23T05:35:42;18.97;;;8.40;;
77191;SDS011;66172;48.526;8.078;2023-01-23T05:38:09;18.58;;;7.85;;
77191;SDS011;66172;48.526;8.078;2023-01-23T05:40:37;14.60;;;6.70;;
77191;SDS011;66172;48.526;8.078;2023-01-23T05:43:03;15.20;;;6.28;;
77191;SDS011;66172;48.526;8.078;2023-01-23T05:45:29;12.53;;;5.87;;
77191;SDS011;66172;48.526;8.078;2023-01-23T05:47:55;13.77;;;6.07;;
77191;SDS011;66172;48.526;8.078;2023-01-23T05:50:21;14.90;;;6.20;;
77191;SDS011;66172;48.526;8.078;2023-01-23T05:52:49;14.98;;;6.38;;
77191;SDS011;66172;48.526;8.078;2023-01-23T05:55:15;15.73;;;6.97;;
77191;SDS011;66172;48.526;8.078;2023-01-23T05:57:41;14.05;;;6.25;;
77191;SDS011;66172;48.526;8.078;2023-01-23T06:00:07;13.68;;;6.10;;
77191;SDS011;66172;48.526;8.078;2023-01-23T06:02:36;14.93;;;6.90;;
77191;SDS011;66172;48.526;8.078;2023-01-23T06:05:01;15.60;;;6.37;;
77191;SDS011;66172;48.526;8.078;2023-01-23T06:07:27;13.37;;;5.73;;
77191;SDS011;66172;48.526;8.078;2023-01-23T06:09:53;13.63;;;6.18;;
77191;SDS011;66172;48.526;8.078;2023-01-23T06:12:19;14.73;;;6.20;;
77191;SDS011;66172;48.526;8.078;2023-01-23T06:14:45;13.83;;;5.90;;
77191;SDS011;66172;48.526;8.078;2023-01-23T06:17:12;15.45;;;6.40;;
77191;SDS011;66172;48.526;8.078;2023-01-23T06:19:38;14.00;;;6.55;;
77191;SDS011;66172;48.526;8.078;2023-01-23T06:22:04;15.10;;;6.32;;
77191;SDS011;66172;48.526;8.078;2023-01-23T06:24:30;15.23;;;6.17;;
77191;SDS011;66172;48.526;8.078;2023-01-23T06:26:55;14.60;;;6.13;;
77191;SDS011;66172;48.526;8.078;2023-01-23T06:29:21;15.82;;;7.10;;
77191;SDS011;66172;48.526;8.078;2023-01-23T06:31:47;14.93;;;6.32;;
77191;SDS011;66172;48.526;8.078;2023-01-23T06:34:14;16.20;;;6.97;;
77191;SDS011;66172;48.526;8.078;2023-01-23T06:36:40;16.35;;;6.50;;
77191;SDS011;66172;48.526;8.078;2023-01-23T06:39:06;13.35;;;6.38;;
77191;SDS011;66172;48.526;8.078;2023-01-23T06:41:32;19.20;;;8.43;;
77191;SDS011;66172;48.526;8.078;2023-01-23T06:43:58;25.27;;;10.63;;
77191;SDS011;66172;48.526;8.078;2023-01-23T06:46:24;15.43;;;6.97;;
77191;SDS011;66172;48.526;8.078;2023-01-23T06:48:51;16.40;;;7.70;;
77191;SDS011;66172;48.526;8.078;2023-01-23T06:51:16;16.73;;;8.32;;
77191;SDS011;66172;48.526;8.078;2023-01-23T06:53:42;11.47;;;5.33;;
77191;SDS011;66172;48.526;8.078;2023-01-23T06:56:08;16.30;;;6.10;;
77191;SDS011;66172;48.526;8.078;2023-01-23T06:58:35;13.63;;;5.78;;
77191;SDS011;66172;48.526;8.078;2023-01-23T07:01:09;14.90;;;6.35;;
77191;SDS011;66172;48.526;8.078;2023-01-23T07:03:37;16.55;;;6.68;;
77191;SDS011;66172;48.526;8.078;2023-01-23T07:06:03;15.53;;;6.63;;
77191;SDS011;66172;48.526;8.078;2023-01-23T07:08:32;13.80;;;5.88;;
77191;SDS011;66172;48.526;8.078;2023-01-23T07:10:58;15.02;;;6.35;;
77191;SDS011;66172;48.526;8.078;2023-01-23T07:13:25;13.93;;;5.72;;
77191;SDS011;66172;48.526;8.078;2023-01-23T07:15:51;14.77;;;6.32;;
77191;SDS011;66172;48.526;8.078;2023-01-23T07:18:16;15.80;;;6.23;;
77191;SDS011;66172;48.526;8.078;2023-01-23T07:20:43;12.95;;;5.97;;
77191;SDS011;66172;48.526;8.078;2023-01-23T07:23:09;16.55;;;6.18;;
77191;SDS011;66172;48.526;8.078;2023-01-23T07:25:35;14.98;;;6.68;;
77191;SDS011;66172;48.526;8.078;2023-01-23T07:28:01;14.97;;;6.47;;
77191;SDS011;66172;48.526;8.078;2023-01-23T07:30:28;15.05;;;6.45;;
77191;SDS011;66172;48.526;8.078;2023-01-23T07:32:54;18.38;;;6.90;;
77191;SDS011;66172;48.526;8.078;2023-01-23T07:35:20;16.42;;;7.35;;
77191;SDS011;66172;48.526;8.078;2023-01-23T07:37:46;21.30;;;10.67;;
77191;SDS011;66172;48.526;8.078;2023-01-23T07:40:12;18.80;;;8.73;;
77191;SDS011;66172;48.526;8.078;2023-01-23T07:42:38;16.58;;;6.57;;
77191;SDS011;66172;48.526;8.078;2023-01-23T07:45:05;17.88;;;7.13;;
77191;SDS011;66172;48.526;8.078;2023-01-23T07:47:31;18.77;;;8.38;;
77191;SDS011;66172;48.526;8.078;2023-01-23T07:49:57;19.77;;;8.17;;
77191;SDS011;66172;48.526;8.078;2023-01-23T07:52:23;16.73;;;7.13;;
77191;SDS011;66172;48.526;8.078;2023-01-23T07:54:49;14.73;;;6.05;;
77191;SDS011;66172;48.526;8.078;2023-01-23T07:57:14;18.10;;;7.10;;
77191;SDS011;66172;48.526;8.078;2023-01-23T07:59:40;13.43;;;5.68;;
77191;SDS011;66172;48.526;8.078;2023-01-23T08:02:07;14.70;;;6.32;;
77191;SDS011;66172;48.526;8.078;2023-01-23T08:04:35;14.98;;;6.18;;
77191;SDS011;66172;48.526;8.078;2023-01-23T08:07:01;14.97;;;6.43;;
77191;SDS011;66172;48.526;8.078;2023-01-23T08:09:28;15.93;;;6.20;;
77191;SDS011;66172;48.526;8.078;2023-01-23T08:11:54;17.08;;;6.45;;
77191;SDS011;66172;48.526;8.078;2023-01-23T08:14:20;13.87;;;6.43;;
77191;SDS011;66172;48.526;8.078;2023-01-23T08:16:49;17.70;;;6.40;;
77191;SDS011;66172;48.526;8.078;2023-01-23T08:19:16;16.48;;;6.45;;
77191;SDS011;66172;48.526;8.078;2023-01-23T08:21:42;15.98;;;6.32;;
77191;SDS011;66172;48.526;8.078;2023-01-23T08:24:09;17.08;;;7.10;;
77191;SDS011;66172;48.526;8.078;2023-01-23T08:26:36;15.88;;;7.32;;
77191;SDS011;66172;48.526;8.078;2023-01-23T08:29:02;18.23;;;6.57;;
77191;SDS011;66172;48.526;8.078;2023-01-23T08:31:28;15.43;;;6.22;;
77191;SDS011;66172;48.526;8.078;2023-01-23T08:33:54;16.05;;;7.00;;
77191;SDS011;66172;48.526;8.078;2023-01-23T08:36:21;15.68;;;6.65;;
77191;SDS011;66172;48.526;8.078;2023-01-23T08:38:47;15.13;;;6.37;;
77191;SDS011;66172;48.526;8.078;2023-01-23T08:41:13;16.75;;;7.38;;
77191;SDS011;66172;48.526;8.078;2023-01-23T08:43:39;15.73;;;6.47;;
77191;SDS011;66172;48.526;8.078;2023-01-23T08:46:06;17.63;;;7.10;;
77191;SDS011;66172;48.526;8.078;2023-01-23T08:48:32;14.55;;;6.05;;
77191;SDS011;66172;48.526;8.078;2023-01-23T08:51:03;13.77;;;6.30;;
77191;SDS011;66172;48.526;8.078;2023-01-23T08:53:32;15.98;;;6.07;;
77191;SDS011;66172;48.526;8.078;2023-01-23T08:56:02;13.95;;;6.07;;
77191;SDS011;66172;48.526;8.078;2023-01-23T08:58:30;14.90;;;6.13;;
77191;SDS011;66172;48.526;8.078;2023-01-23T09:00:56;15.77;;;5.97;;
77191;SDS011;66172;48.526;8.078;2023-01-23T09:03:22;14.87;;;5.53;;
77191;SDS011;66172;48.526;8.078;2023-01-23T09:05:48;15.02;;;6.13;;
77191;SDS011;66172;48.526;8.078;2023-01-23T09:08:15;14.77;;;5.97;;
77191;SDS011;66172;48.526;8.078;2023-01-23T09:10:41;15.43;;;5.72;;
77191;SDS011;66172;48.526;8.078;2023-01-23T09:13:07;14.10;;;5.60;;
77191;SDS011;66172;48.526;8.078;2023-01-23T09:15:33;15.73;;;6.10;;
77191;SDS011;66172;48.526;8.078;2023-01-23T09:17:59;15.27;;;6.18;;
77191;SDS011;66172;48.526;8.078;2023-01-23T09:20:25;14.40;;;6.25;;
77191;SDS011;66172;48.526;8.078;2023-01-23T09:22:53;16.83;;;6.47;;
77191;SDS011;66172;48.526;8.078;2023-01-23T09:25:19;15.53;;;5.77;;
77191;SDS011;66172;48.526;8.078;2023-01-23T09:27:45;16.15;;;6.57;;
77191;SDS011;66172;48.526;8.078;2023-01-23T09:30:11;14.23;;;5.93;;
77191;SDS011;66172;48.526;8.078;2023-01-23T09:32:38;16.17;;;6.80;;
77191;SDS011;66172;48.526;8.078;2023-01-23T09:35:04;14.90;;;6.13;;
77191;SDS011;66172;48.526;8.078;2023-01-23T09:37:30;17.17;;;6.38;;
77191;SDS011;66172;48.526;8.078;2023-01-23T09:40:16;15.60;;;6.47;;
77191;SDS011;66172;48.526;8.078;2023-01-23T09:42:43;16.95;;;6.50;;
77191;SDS011;66172;48.526;8.078;2023-01-23T09:45:11;18.13;;;7.13;;
77191;SDS011;66172;48.526;8.078;2023-01-23T09:50:51;17.27;;;7.03;;
77191;SDS011;66172;48.526;8.078;2023-01-23T09:53:40;15.35;;;6.10;;
77191;SDS011;66172;48.526;8.078;2023-01-23T09:56:17;16.33;;;6.97;;
77191;SDS011;66172;48.526;8.078;2023-01-23T10:01:39;17.10;;;6.50;;
77191;SDS011;66172;48.526;8.078;2023-01-23T10:04:05;15.40;;;6.32;;
77191;SDS011;66172;48.526;8.078;2023-01-23T10:06:52;17.70;;;6.93;;
77191;SDS011;66172;48.526;8.078;2023-01-23T10:15:09;16.60;;;6.50;;
77191;SDS011;66172;48.526;8.078;2023-01-23T10:17:52;16.60;;;6.82;;
77191;SDS011;66172;48.526;8.078;2023-01-23T10:26:10;17.67;;;7.03;;
77191;SDS011;66172;48.526;8.078;2023-01-23T10:28:41;17.00;;;6.93;;
77191;SDS011;66172;48.526;8.078;2023-01-23T10:33:52;15.32;;;5.95;;
77191;SDS011;66172;48.526;8.078;2023-01-23T10:36:27;17.83;;;6.88;;
77191;SDS011;66172;48.526;8.078;2023-01-23T10:39:01;17.15;;;7.00;;
77191;SDS011;66172;48.526;8.078;2023-01-23T10:41:37;13.97;;;5.90;;
77191;SDS011;66172;48.526;8.078;2023-01-23T10:44:04;14.02;;;5.88;;
77191;SDS011;66172;48.526;8.078;2023-01-23T10:46:51;16.08;;;6.20;;
77191;SDS011;66172;48.526;8.078;2023-01-23T10:49:34;18.15;;;6.93;;
77191;SDS011;66172;48.526;8.078;2023-01-23T10:52:03;14.80;;;5.72;;
77191;SDS011;66172;48.526;8.078;2023-01-23T10:54:30;11.23;;;4.70;;
77191;SDS011;66172;48.526;8.078;2023-01-23T10:59:58;9.32;;;3.72;;
77191;SDS011;66172;48.526;8.078;2023-01-23T11:02:32;10.45;;;3.72;;
77191;SDS011;66172;48.526;8.078;2023-01-23T11:05:00;10.10;;;3.72;;
77191;SDS011;66172;48.526;8.078;2023-01-23T11:07:31;12.60;;;4.03;;
77191;SDS011;66172;48.526;8.078;2023-01-23T11:12:46;13.20;;;5.38;;
77191;SDS011;66172;48.526;8.078;2023-01-23T11:15:21;10.38;;;4.20;;
77191;SDS011;66172;48.526;8.078;2023-01-23T11:17:50;11.05;;;3.97;;
77191;SDS011;66172;48.526;8.078;2023-01-23T11:31:08;9.43;;;3.28;;
77191;SDS011;66172;48.526;8.078;2023-01-23T11:33:51;10.07;;;4.20;;
77191;SDS011;66172;48.526;8.078;2023-01-23T11:41:44;19.23;;;7.53;;
77191;SDS011;66172;48.526;8.078;2023-01-23T11:44:18;9.82;;;3.95;;
77191;SDS011;66172;48.526;8.078;2023-01-23T11:49:38;9.52;;;3.30;;
77191;SDS011;66172;48.526;8.078;2023-01-23T11:58:03;10.63;;;4.15;;
77191;SDS011;66172;48.526;8.078;2023-01-23T12:03:35;8.38;;;3.20;;
77191;SDS011;66172;48.526;8.078;2023-01-23T12:06:24;9.93;;;3.70;;
77191;SDS011;66172;48.526;8.078;2023-01-23T12:09:08;11.95;;;4.35;;
77191;SDS011;66172;48.526;8.078;2023-01-23T12:28:03;9.63;;;3.40;;
77191;SDS011;66172;48.526;8.078;2023-01-23T12:42:19;12.43;;;3.67;;
77191;SDS011;66172;48.526;8.078;2023-01-23T12:44:55;9.20;;;3.38;;
77191;SDS011;66172;48.526;8.078;2023-01-23T12:47:41;10.57;;;3.50;;
77191;SDS011;66172;48.526;8.078;2023-01-23T12:50:17;9.93;;;3.15;;
77191;SDS011;66172;48.526;8.078;2023-01-23T12:53:07;11.38;;;3.67;;
77191;SDS011;66172;48.526;8.078;2023-01-23T12:58:20;10.90;;;3.38;;
77191;SDS011;66172;48.526;8.078;2023-01-23T13:00:54;9.30;;;3.20;;
77191;SDS011;66172;48.526;8.078;2023-01-23T13:09:12;10.30;;;4.10;;
77191;SDS011;66172;48.526;8.078;2023-01-23T13:12:04;9.60;;;3.83;;
77191;SDS011;66172;48.526;8.078;2023-01-23T13:14:43;8.95;;;3.30;;
77191;SDS011;66172;48.526;8.078;2023-01-23T13:26:33;12.45;;;5.03;;
77191;SDS011;66172;48.526;8.078;2023-01-23T13:28:43;12.82;;;5.22;;
77191;SDS011;66172;48.526;8.078;2023-01-23T13:31:35;15.30;;;6.28;;
77191;SDS011;66172;48.526;8.078;2023-01-23T13:34:47;14.57;;;6.50;;
77191;SDS011;66172;48.526;8.078;2023-01-23T13:37:30;19.97;;;7.50;;
77191;SDS011;66172;48.526;8.078;2023-01-23T13:40:01;16.58;;;6.75;;
77191;SDS011;66172;48.526;8.078;2023-01-23T13:42:37;16.65;;;7.18;;
77191;SDS011;66172;48.526;8.078;2023-01-23T13:48:05;22.20;;;8.23;;
77191;SDS011;66172;48.526;8.078;2023-01-23T13:51:22;20.13;;;7.38;;
77191;SDS011;66172;48.526;8.078;2023-01-23T13:53:48;18.80;;;7.35;;
77191;SDS011;66172;48.526;8.078;2023-01-23T13:56:37;17.25;;;6.80;;
77191;SDS011;66172;48.526;8.078;2023-01-23T13:59:05;15.52;;;7.13;;
77191;SDS011;66172;48.526;8.078;2023-01-23T14:01:53;18.43;;;7.20;;
77191;SDS011;66172;48.526;8.078;2023-01-23T14:04:49;19.90;;;6.57;;
77191;SDS011;66172;48.526;8.078;2023-01-23T14:07:37;18.98;;;7.72;;
77191;SDS011;66172;48.526;8.078;2023-01-23T14:10:18;16.30;;;6.65;;
77191;SDS011;66172;48.526;8.078;2023-01-23T14:12:46;17.75;;;6.80;;
77191;SDS011;66172;48.526;8.078;2023-01-23T14:15:20;21.33;;;7.90;;
77191;SDS011;66172;48.526;8.078;2023-01-23T14:18:13;19.30;;;8.27;;
77191;SDS011;66172;48.526;8.078;2023-01-23T14:20:52;16.92;;;7.10;;
77191;SDS011;66172;48.526;8.078;2023-01-23T14:23:24;17.67;;;6.57;;
77191;SDS011;66172;48.526;8.078;2023-01-23T14:25:57;20.95;;;7.82;;
77191;SDS011;66172;48.526;8.078;2023-01-23T14:28:23;21.07;;;8.00;;
77191;SDS011;66172;48.526;8.078;2023-01-23T14:30:53;21.52;;;8.57;;
77191;SDS011;66172;48.526;8.078;2023-01-23T14:33:21;19.70;;;7.72;;
77191;SDS011;66172;48.526;8.078;2023-01-23T14:35:47;17.83;;;6.65;;
77191;SDS011;66172;48.526;8.078;2023-01-23T14:38:32;21.08;;;7.90;;
77191;SDS011;66172;48.526;8.078;2023-01-23T14:41:05;16.83;;;7.10;;
77191;SDS011;66172;48.526;8.078;2023-01-23T14:43:32;18.73;;;7.75;;
77191;SDS011;66172;48.526;8.078;2023-01-23T14:46:18;17.83;;;7.43;;
77191;SDS011;66172;48.526;8.078;2023-01-23T14:48:50;22.13;;;8.20;;
77191;SDS011;66172;48.526;8.078;2023-01-23T14:51:20;19.23;;;8.00;;
77191;SDS011;66172;48.526;8.078;2023-01-23T14:53:58;17.70;;;7.60;;
77191;SDS011;66172;48.526;8.078;2023-01-23T14:56:30;20.40;;;7.15;;
77191;SDS011;66172;48.526;8.078;2023-01-23T14:58:59;18.55;;;7.15;;
77191;SDS011;66172;48.526;8.078;2023-01-23T15:01:28;15.68;;;6.40;;
77191;SDS011;66172;48.526;8.078;2023-01-23T15:03:55;15.30;;;5.85;;
77191;SDS011;66172;48.526;8.078;2023-01-23T15:06:22;16.43;;;6.50;;
77191;SDS011;66172;48.526;8.078;2023-01-23T15:08:49;18.25;;;7.43;;
77191;SDS011;66172;48.526;8.078;2023-01-23T15:11:16;17.23;;;7.25;;
77191;SDS011;66172;48.526;8.078;2023-01-23T15:13:50;18.85;;;7.63;;
77191;SDS011;66172;48.526;8.078;2023-01-23T15:16:27;17.73;;;6.45;;
77191;SDS011;66172;48.526;8.078;2023-01-23T15:19:02;17.53;;;6.70;;
77191;SDS011;66172;48.526;8.078;2023-01-23T15:21:34;19.83;;;6.78;;
77191;SDS011;66172;48.526;8.078;2023-01-23T15:26:41;18.38;;;7.72;;
77191;SDS011;66172;48.526;8.078;2023-01-23T15:36:51;19.17;;;7.32;;
77191;SDS011;66172;48.526;8.078;2023-01-23T15:41:49;20.10;;;7.73;;
77191;SDS011;66172;48.526;8.078;2023-01-23T15:44:18;16.77;;;6.90;;
77191;SDS011;66172;48.526;8.078;2023-01-23T15:46:45;19.88;;;7.55;;
77191;SDS011;66172;48.526;8.078;2023-01-23T15:49:11;20.23;;;8.07;;
77191;SDS011;66172;48.526;8.078;2023-01-23T15:51:38;17.40;;;6.82;;
77191;SDS011;66172;48.526;8.078;2023-01-23T15:54:04;20.93;;;8.37;;
77191;SDS011;66172;48.526;8.078;2023-01-23T15:56:34;19.00;;;7.10;;
77191;SDS011;66172;48.526;8.078;2023-01-23T15:58:59;18.58;;;7.30;;
77191;SDS011;66172;48.526;8.078;2023-01-23T16:01:27;20.58;;;7.70;;
77191;SDS011;66172;48.526;8.078;2023-01-23T16:03:54;21.45;;;8.18;;
77191;SDS011;66172;48.526;8.078;2023-01-23T16:06:20;19.43;;;8.03;;
77191;SDS011;66172;48.526;8.078;2023-01-23T16:08:48;19.73;;;8.05;;
77191;SDS011;66172;48.526;8.078;2023-01-23T16:11:16;19.33;;;8.02;;
77191;SDS011;66172;48.526;8.078;2023-01-23T16:13:43;20.88;;;7.88;;
77191;SDS011;66172;48.526;8.078;2023-01-23T16:16:18;25.02;;;9.77;;
77191;SDS011;66172;48.526;8.078;2023-01-23T16:18:44;28.33;;;11.80;;
77191;SDS011;66172;48.526;8.078;2023-01-23T16:21:11;24.75;;;9.70;;
77191;SDS011;66172;48.526;8.078;2023-01-23T16:23:39;24.30;;;10.05;;
77191;SDS011;66172;48.526;8.078;2023-01-23T16:26:05;21.30;;;8.85;;
77191;SDS011;66172;48.526;8.078;2023-01-23T16:28:33;24.23;;;9.87;;
77191;SDS011;66172;48.526;8.078;2023-01-23T16:30:59;14.60;;;6.35;;
77191;SDS011;66172;48.526;8.078;2023-01-23T16:33:25;15.93;;;5.93;;
77191;SDS011;66172;48.526;8.078;2023-01-23T16:35:51;22.50;;;9.83;;
77191;SDS011;66172;48.526;8.078;2023-01-23T16:38:19;22.33;;;8.50;;
77191;SDS011;66172;48.526;8.078;2023-01-23T16:40:47;19.95;;;7.68;;
77191;SDS011;66172;48.526;8.078;2023-01-23T16:43:16;17.98;;;7.32;;
77191;SDS011;66172;48.526;8.078;2023-01-23T16:45:41;14.45;;;5.97;;
77191;SDS011;66172;48.526;8.078;2023-01-23T16:48:07;14.67;;;5.87;;